createdAt,value
2018-05-13T00:00:49.160Z,34
2018-05-13T00:10:48.986Z,32
2018-05-13T00:20:48.903Z,33
2018-05-13T00:30:49.056Z,36
2018-05-13T00:40:48.953Z,35
2018-05-13T00:50:48.937Z,35
2018-05-13T01:00:49.005Z,33
2018-05-13T01:10:48.873Z,35
2018-05-13T01:20:48.957Z,35
2018-05-13T01:30:49.093Z,37
2018-05-13T01:40:48.869Z,37
2018-05-13T01:50:48.910Z,39
2018-05-13T02:00:48.920Z,36
2018-05-13T02:10:48.905Z,37
2018-05-13T02:20:49.033Z,36
2018-05-13T02:30:48.908Z,36
2018-05-13T02:40:48.865Z,37
2018-05-13T02:50:48.935Z,37
2018-05-13T03:00:48.878Z,36
2018-05-13T03:10:48.997Z,38
2018-05-13T03:20:48.988Z,37
2018-05-13T03:30:48.942Z,34
2018-05-13T03:40:48.975Z,34
2018-05-13T03:50:48.908Z,34
2018-05-13T04:00:48.991Z,32
2018-05-13T04:10:48.995Z,35
2018-05-13T04:20:49.058Z,33
2018-05-13T04:30:48.968Z,33
2018-05-13T04:40:49.045Z,32
2018-05-13T04:50:49.081Z,33
2018-05-13T05:00:49.068Z,35
2018-05-13T05:10:48.994Z,32
2018-05-13T05:20:49.138Z,31
2018-05-13T05:30:49.086Z,31
2018-05-13T05:40:49.120Z,31
2018-05-13T05:50:49.011Z,30
2018-05-13T06:00:49.074Z,30
2018-05-13T06:10:49.109Z,29
2018-05-13T06:20:49.225Z,27
2018-05-13T06:30:49.161Z,26
2018-05-13T06:40:55.339Z,25
2018-05-13T06:50:49.229Z,23
2018-05-13T07:00:49.123Z,25
2018-05-13T07:10:49.392Z,25
2018-05-13T07:20:49.197Z,25
2018-05-13T07:30:49.123Z,22
2018-05-13T07:41:14.272Z,21
2018-05-13T07:50:49.137Z,23
2018-05-13T08:00:49.457Z,22
2018-05-13T08:10:50.505Z,22
2018-05-13T08:20:50.372Z,22
2018-05-13T08:30:49.189Z,22
2018-05-13T08:41:02.619Z,24
2018-05-13T08:50:49.176Z,25
2018-05-13T09:00:49.305Z,27
2018-05-13T09:10:49.231Z,29
2018-05-13T09:20:49.313Z,25
2018-05-13T09:30:50.329Z,25
2018-05-13T09:40:49.438Z,28
2018-05-13T09:50:49.370Z,28
2018-05-13T10:00:49.444Z,27
2018-05-13T10:10:49.247Z,28
2018-05-13T10:20:50.279Z,30
2018-05-13T10:31:26.647Z,30
2018-05-13T10:40:49.656Z,32
2018-05-13T10:50:51.156Z,31
2018-05-13T11:00:50.420Z,30
2018-05-13T11:10:49.289Z,29
2018-05-13T11:21:37.482Z,33
2018-05-13T11:31:37.591Z,31
2018-05-13T11:41:37.941Z,23
2018-05-13T11:51:37.632Z,23
2018-05-13T12:01:37.933Z,24
2018-05-13T12:11:37.509Z,24
2018-05-13T12:21:37.600Z,25
2018-05-13T12:31:37.482Z,22
2018-05-13T12:41:37.578Z,42
2018-05-13T12:51:37.525Z,45
2018-05-13T13:01:37.500Z,45
2018-05-13T13:11:37.606Z,42
2018-05-13T13:21:37.542Z,46
2018-05-13T13:31:37.554Z,49
2018-05-13T13:41:37.613Z,51
2018-05-13T13:51:37.547Z,54
2018-05-13T14:01:37.604Z,50
2018-05-13T14:11:37.619Z,52
2018-05-13T14:21:37.609Z,50
2018-05-13T14:31:37.631Z,51
2018-05-13T14:41:37.574Z,54
2018-05-13T14:51:37.792Z,52
2018-05-13T15:01:37.561Z,55
2018-05-13T15:11:37.529Z,52
2018-05-13T15:21:37.497Z,51
2018-05-13T15:31:37.542Z,51
2018-05-13T15:41:37.551Z,51
2018-05-13T15:51:37.523Z,53
2018-05-13T16:01:37.552Z,51
2018-05-13T16:11:37.500Z,51
2018-05-13T16:21:37.475Z,52
2018-05-13T16:31:37.496Z,53
2018-05-13T16:41:37.522Z,51
2018-05-13T16:51:37.522Z,51
2018-05-13T17:01:37.533Z,49
2018-05-13T17:11:37.564Z,49
2018-05-13T17:21:37.486Z,47
2018-05-13T17:31:37.787Z,48
2018-05-13T17:41:37.569Z,46
2018-05-13T17:51:37.659Z,49
2018-05-13T18:01:37.618Z,48
2018-05-13T18:11:37.716Z,51
2018-05-13T18:21:37.733Z,50
2018-05-13T18:31:37.736Z,50
2018-05-13T18:41:37.759Z,52
2018-05-13T18:51:37.661Z,54
2018-05-13T19:01:37.703Z,66
2018-05-13T19:11:37.703Z,52
2018-05-13T19:21:37.791Z,51
2018-05-13T19:31:37.688Z,50
2018-05-13T19:41:37.801Z,51
2018-05-13T19:51:37.691Z,53
2018-05-13T20:01:37.786Z,54
2018-05-13T20:11:37.646Z,52
2018-05-13T20:21:37.686Z,54
2018-05-13T20:31:37.719Z,54
2018-05-13T20:41:37.792Z,52
2018-05-13T20:51:37.725Z,55
2018-05-13T21:01:38.226Z,55
2018-05-13T21:11:37.769Z,51
2018-05-13T21:21:37.862Z,52
2018-05-13T21:31:37.869Z,54
2018-05-13T21:41:37.872Z,56
2018-05-13T21:51:39.093Z,58
2018-05-13T22:01:38.039Z,58
2018-05-13T22:11:38.006Z,59
2018-05-13T22:23:12.111Z,53
2018-05-13T22:31:37.807Z,60
2018-05-13T22:41:37.854Z,60
2018-05-13T22:51:37.838Z,59
2018-05-13T23:01:37.863Z,59
2018-05-13T23:11:51.986Z,55
2018-05-13T23:21:51.338Z,57
2018-05-13T23:31:38.001Z,55
2018-05-13T23:41:37.947Z,55
2018-05-13T23:51:38.087Z,55
